Time;durP1;ratioP1;P1;durP2;ratioP2;P2;SDS_P1;SDS_P2;PMS_P1;PMS_P2;Temp;Humidity;BMP_temperature;BMP_pressure;BME280_temperature;BME280_humidity;BME280_pressure;Samples;Min_cycle;Max_cycle;Signal;HPM_P1;HPM_P2
2023/04/07 00:02:43;;;;;;;;;;;;;;;18.47;58.85;101320.96;2305360;76;50674;-76
2023/04/07 00:05:45;;;;;;;;;;;;;;;18.48;58.81;101308.39;2305010;75;50299;-74
2023/04/07 00:08:46;;;;;;;;;;;;;;;18.46;58.77;101315.25;2285871;77;51045;-74
2023/04/07 00:11:48;;;;;;;;;;;;;;;18.45;58.76;101315.43;2285955;77;50649;-75
2023/04/07 00:14:50;;;;;;;;;;;;;;;18.43;58.76;101312.91;2305056;75;51349;-75
2023/04/07 00:17:51;;;;;;;;;;;;;;;18.41;58.77;101316.75;2286167;77;51387;-75
2023/04/07 00:20:53;;;;;;;;;;;;;;;18.37;58.82;101324.30;2305311;77;51451;-75
2023/04/07 00:23:55;;;;;;;;;;;;;;;18.35;58.92;101316.92;2286738;76;51386;-75
2023/04/07 00:26:57;;;;;;;;;;;;;;;18.34;58.96;101313.05;2293630;76;52063;-76
2023/04/07 00:29:59;;;;;;;;;;;;;;;18.32;59.12;101313.23;2270947;78;53476;-74
2023/04/07 00:33:00;;;;;;;;;;;;;;;18.39;59.10;101312.89;2246259;78;51666;-75
2023/04/07 00:36:02;;;;;;;;;;;;;;;18.47;58.94;101317.42;2270762;77;51373;-75
2023/04/07 00:39:03;;;;;;;;;;;;;;;18.49;58.79;101308.20;2282910;77;51357;-75
2023/04/07 00:42:06;;;;;;;;;;;;;;;18.50;58.71;101308.56;2282813;78;51370;-75
2023/04/07 00:45:09;;;;;;;;;;;;;;;18.50;58.71;101304.55;2256504;76;51681;-75
2023/04/07 00:48:11;;;;;;;;;;;;;;;18.48;58.71;101304.37;2335548;75;50678;-75
2023/04/07 00:51:12;;;;;;;;;;;;;;;18.46;58.75;101303.19;2321468;76;51448;-75
2023/04/07 00:54:14;;;;;;;;;;;;;;;18.43;58.79;101300.84;2313480;76;50581;-74
2023/04/07 00:57:16;;;;;;;;;;;;;;;18.40;58.81;101301.19;2276062;76;50505;-74
2023/04/07 01:00:17;;;;;;;;;;;;;;;18.36;58.83;101294.47;2282950;78;50288;-75
2023/04/07 01:03:20;;;;;;;;;;;;;;;18.35;58.88;101288.79;2270744;78;50149;-76
2023/04/07 01:06:23;;;;;;;;;;;;;;;18.39;58.94;101290.63;2282661;77;52454;-76
2023/04/07 01:09:33;;;;;;;;;;;;;;;18.47;58.82;101288.80;2270723;78;51132;-75
2023/04/07 01:12:42;;;;;;;;;;;;;;;18.53;58.73;101283.78;2282632;77;52086;-76
2023/04/07 01:15:44;;;;;;;;;;;;;;;18.53;58.66;101283.27;2283192;77;51495;-76
2023/04/07 01:18:46;;;;;;;;;;;;;;;18.54;58.62;101285.45;2283419;76;50043;-76
2023/04/07 01:21:48;;;;;;;;;;;;;;;18.53;58.58;101279.25;2271141;78;52343;-74
2023/04/07 01:24:54;;;;;;;;;;;;;;;18.51;58.60;101277.23;2289984;76;51539;-75
2023/04/07 01:28:10;;;;;;;;;;;;;;;18.49;58.61;101269.86;2280940;77;50624;-75
2023/04/07 01:31:12;;;;;;;;;;;;;;;18.45;58.68;101269.38;2280666;77;50747;-75
2023/04/07 01:34:14;;;;;;;;;;;;;;;18.42;58.71;101268.84;2280501;78;50720;-75
2023/04/07 01:37:15;;;;;;;;;;;;;;;18.38;58.83;101268.86;2280758;77;50281;-75
2023/04/07 01:40:17;;;;;;;;;;;;;;;18.40;58.88;101270.87;2280512;77;50219;-75
2023/04/07 01:43:18;;;;;;;;;;;;;;;18.45;58.82;101264.52;2280430;77;50703;-75
2023/04/07 01:46:20;;;;;;;;;;;;;;;18.50;58.62;101267.02;2294160;77;50895;-75
2023/04/07 01:49:22;;;;;;;;;;;;;;;18.50;58.61;101268.88;2294290;76;50042;-76
2023/04/07 01:52:24;;;;;;;;;;;;;;;18.49;58.61;101269.35;2280600;78;51410;-74
2023/04/07 01:55:27;;;;;;;;;;;;;;;18.47;58.59;101270.05;2294258;76;50645;-74
2023/04/07 01:58:28;;;;;;;;;;;;;;;18.46;58.58;101262.99;2258987;78;51238;-74
2023/04/07 02:01:30;;;;;;;;;;;;;;;18.44;58.62;101264.16;2296555;77;51563;-74
2023/04/07 02:04:39;;;;;;;;;;;;;;;18.41;58.62;101265.84;2282594;78;51195;-74
2023/04/07 02:07:42;;;;;;;;;;;;;;;18.38;58.76;101263.00;2296547;77;51420;-74
2023/04/07 02:10:45;;;;;;;;;;;;;;;18.35;58.78;101264.67;2296266;77;51204;-75
2023/04/07 02:13:47;;;;;;;;;;;;;;;18.35;58.95;101259.83;2282405;76;51440;-75
2023/04/07 02:16:48;;;;;;;;;;;;;;;18.41;58.82;101256.47;2300125;76;51484;-74
2023/04/07 02:19:51;;;;;;;;;;;;;;;18.50;58.57;101258.98;2321335;76;51458;-74
2023/04/07 02:22:54;;;;;;;;;;;;;;;18.57;58.26;101251.09;2335104;75;50900;-74
2023/04/07 02:26:01;;;;;;;;;;;;;;;18.61;58.15;101249.77;2334852;76;22284;-75
2023/04/07 02:29:00;;;;;;;;;;;;;;;18.62;58.08;101242.55;2344006;75;22255;-75
2023/04/07 02:32:01;;;;;;;;;;;;;;;18.59;58.08;101245.07;2344647;76;50626;-76
2023/04/07 02:35:03;;;;;;;;;;;;;;;18.57;58.18;101251.09;2351379;75;52470;-74
2023/04/07 02:38:05;;;;;;;;;;;;;;;18.53;58.23;101251.11;2351693;75;50588;-73
2023/04/07 02:41:06;;;;;;;;;;;;;;;18.50;58.26;101242.91;2344442;76;51411;-74
2023/04/07 02:44:08;;;;;;;;;;;;;;;18.45;58.30;101246.59;2335676;76;51406;-74
2023/04/07 02:47:09;;;;;;;;;;;;;;;18.39;58.51;101241.88;2283307;77;52313;-74
2023/04/07 02:50:11;;;;;;;;;;;;;;;18.37;58.60;101244.39;2285943;77;52482;-75
2023/04/07 02:53:13;;;;;;;;;;;;;;;18.42;58.39;101242.91;2305130;77;51498;-75
2023/04/07 02:56:15;;;;;;;;;;;;;;;18.46;58.21;101240.72;2285471;77;50635;-74
2023/04/07 02:59:17;;;;;;;;;;;;;;;18.48;58.13;101249.44;2311576;76;52389;-75
2023/04/07 03:02:19;;;;;;;;;;;;;;;18.47;58.15;101243.25;2285812;77;51530;-74
2023/04/07 03:05:20;;;;;;;;;;;;;;;18.47;58.14;101241.91;2285675;77;51079;-74
2023/04/07 03:08:22;;;;;;;;;;;;;;;18.44;58.19;101238.20;2299448;76;51491;-74
2023/04/07 03:11:23;;;;;;;;;;;;;;;18.43;58.21;101241.90;2331364;76;51452;-73
2023/04/07 03:14:26;;;;;;;;;;;;;;;18.40;58.26;101236.05;2344228;76;51522;-74
2023/04/07 03:17:27;;;;;;;;;;;;;;;18.34;58.37;101232.20;2344604;76;50730;-74
2023/04/07 03:20:29;;;;;;;;;;;;;;;18.32;58.50;101230.19;2351653;75;53216;-75
2023/04/07 03:23:30;;;;;;;;;;;;;;;18.35;58.49;101233.03;2351200;75;51511;-74
2023/04/07 03:26:32;;;;;;;;;;;;;;;18.42;58.32;101230.86;2344115;75;51462;-73
2023/04/07 03:29:33;;;;;;;;;;;;;;;18.50;58.17;101223.32;2344336;76;51371;-75
2023/04/07 03:32:35;;;;;;;;;;;;;;;18.59;57.90;101224.14;2344419;76;50313;-76
2023/04/07 03:35:36;;;;;;;;;;;;;;;;;;2324036;76;51114;-74
2023/04/07 03:38:37;;;;;;;;;;;;;;;18.61;57.86;101218.11;2322424;76;52502;-74
2023/04/07 03:41:39;;;;;;;;;;;;;;;18.60;57.88;101213.73;2317688;75;51489;-75
2023/04/07 03:44:41;;;;;;;;;;;;;;;18.57;57.91;101213.57;2306271;76;51411;-73
2023/04/07 03:47:43;;;;;;;;;;;;;;;18.56;57.89;101213.77;2287698;77;51415;-73
2023/04/07 03:50:45;;;;;;;;;;;;;;;18.55;57.89;101216.09;2286078;77;51590;-73
2023/04/07 03:53:46;;;;;;;;;;;;;;;18.52;57.88;101205.71;2305052;76;50432;-74
2023/04/07 03:56:48;;;;;;;;;;;;;;;18.48;57.90;101210.08;2285852;77;51120;-76
2023/04/07 03:59:50;;;;;;;;;;;;;;;18.46;57.97;101209.91;2305199;76;49913;-73
2023/04/07 04:02:51;;;;;;;;;;;;;;;18.49;57.98;101206.37;2285816;77;49511;-74
2023/04/07 04:05:53;;;;;;;;;;;;;;;18.55;57.86;101213.41;2304932;75;51419;-74
2023/04/07 04:08:54;;;;;;;;;;;;;;;18.55;57.76;101210.73;2287067;77;50278;-73
2023/04/07 04:11:56;;;;;;;;;;;;;;;18.53;57.76;101208.23;2305353;77;50356;-73
2023/04/07 04:14:58;;;;;;;;;;;;;;;18.52;57.72;101214.58;2244342;77;49668;-75
2023/04/07 04:18:00;;;;;;;;;;;;;;;18.50;57.77;101209.41;2285873;77;51477;-73
2023/04/07 04:21:01;;;;;;;;;;;;;;;18.48;57.87;101217.28;2286014;77;51522;-74
2023/04/07 04:24:06;;;;;;;;;;;;;;;18.46;57.86;101216.61;2304988;77;50669;-73
2023/04/07 04:27:07;;;;;;;;;;;;;;;18.43;57.91;101210.25;2305230;77;51493;-72
2023/04/07 04:30:09;;;;;;;;;;;;;;;18.38;58.05;101211.26;2286130;77;51544;-73
2023/04/07 04:33:11;;;;;;;;;;;;;;;18.38;58.15;101208.58;2286215;77;50227;-73
2023/04/07 04:36:13;;;;;;;;;;;;;;;18.42;58.08;101209.90;2285839;77;50366;-73
2023/04/07 04:39:14;;;;;;;;;;;;;;;18.50;57.93;101210.75;2301200;76;51613;-73
2023/04/07 04:42:16;;;;;;;;;;;;;;;18.58;57.77;101211.76;2286011;77;50271;-73
2023/04/07 04:45:18;;;;;;;;;;;;;;;18.62;57.60;101215.75;2305089;77;50594;-75
2023/04/07 04:48:19;;;;;;;;;;;;;;;18.62;57.56;101215.24;2286047;77;50198;-73
2023/04/07 04:51:21;;;;;;;;;;;;;;;18.62;57.68;101218.44;2285833;77;51073;-73
2023/04/07 04:54:22;;;;;;;;;;;;;;;18.60;57.75;101215.08;2305039;77;50626;-75
2023/04/07 04:57:24;;;;;;;;;;;;;;;18.60;57.76;101220.44;2305336;77;50346;-73
2023/04/07 05:00:26;;;;;;;;;;;;;;;18.58;57.79;101220.63;2305313;77;49998;-74
2023/04/07 05:03:27;;;;;;;;;;;;;;;18.56;57.84;101220.46;2260435;77;50216;-73
2023/04/07 05:06:29;;;;;;;;;;;;;;;18.54;57.90;101224.64;2305178;77;51470;-75
2023/04/07 05:09:31;;;;;;;;;;;;;;;18.52;57.96;101223.13;2306346;76;51645;-73
2023/04/07 05:12:33;;;;;;;;;;;;;;;18.55;58.06;101225.47;2305331;77;51382;-71
2023/04/07 05:15:34;;;;;;;;;;;;;;;18.58;58.06;101227.84;2260567;77;52466;-73
2023/04/07 05:18:36;;;;;;;;;;;;;;;18.58;57.94;101226.50;2286115;77;51339;-74
2023/04/07 05:21:37;;;;;;;;;;;;;;;18.57;57.81;101226.97;2305247;77;51234;-73
2023/04/07 05:24:38;;;;;;;;;;;;;;;;;;2304854;77;51430;-71
2023/04/07 05:27:40;;;;;;;;;;;;;;;18.53;57.79;101231.02;2279278;77;51608;-73
2023/04/07 05:30:41;;;;;;;;;;;;;;;18.54;57.82;101225.14;2297479;77;50580;-72
2023/04/07 05:33:43;;;;;;;;;;;;;;;18.53;58.05;101226.16;2297369;77;51377;-74
2023/04/07 05:36:44;;;;;;;;;;;;;;;18.52;58.20;101223.13;2297285;77;51395;-71
2023/04/07 05:39:46;;;;;;;;;;;;;;;18.49;58.39;101218.44;2279179;76;51387;-72
2023/04/07 05:42:48;;;;;;;;;;;;;;;18.49;58.52;101215.76;2336568;76;50281;-72
2023/04/07 05:45:49;;;;;;;;;;;;;;;18.56;58.60;101217.78;2340767;75;50036;-72
2023/04/07 05:48:51;;;;;;;;;;;;;;;18.63;58.49;101218.78;2336510;76;50184;-73
2023/04/07 05:51:52;;;;;;;;;;;;;;;18.69;58.52;101217.59;2302433;76;51635;-73
2023/04/07 05:54:54;;;;;;;;;;;;;;;18.72;58.38;101217.75;2340539;75;51380;-72
2023/04/07 05:57:56;;;;;;;;;;;;;;;18.74;58.24;101217.08;2340916;75;51563;-74
2023/04/07 06:00:57;;;;;;;;;;;;;;;18.74;58.22;101217.59;2341010;75;50603;-75
2023/04/07 06:04:00;;;;;;;;;;;;;;;18.72;58.09;101221.77;2340794;75;51136;-73
2023/04/07 06:07:02;;;;;;;;;;;;;;;18.71;58.02;101222.80;2336698;76;51482;-75
2023/04/07 06:10:04;;;;;;;;;;;;;;;18.68;58.01;101223.97;2314811;76;51484;-73
2023/04/07 06:13:06;;;;;;;;;;;;;;;18.68;57.95;101231.17;2333184;75;50722;-73
2023/04/07 06:16:07;;;;;;;;;;;;;;;18.66;57.93;101235.86;2314561;75;50911;-73
2023/04/07 06:19:09;;;;;;;;;;;;;;;18.61;57.96;101233.69;2336025;75;51420;-75
2023/04/07 06:22:10;;;;;;;;;;;;;;;18.62;57.91;101236.69;2322131;76;51417;-73
2023/04/07 06:25:12;;;;;;;;;;;;;;;18.65;57.82;101235.03;2274122;77;51496;-73
2023/04/07 06:28:14;;;;;;;;;;;;;;;18.66;57.89;101230.50;2339824;76;50391;-73
2023/04/07 06:31:15;;;;;;;;;;;;;;;18.65;57.91;101232.35;2351718;75;50343;-73
2023/04/07 06:34:17;;;;;;;;;;;;;;;18.65;57.82;101242.21;2344304;75;50216;-73
2023/04/07 06:37:18;;;;;;;;;;;;;;;18.61;57.77;101243.06;2344653;76;50645;-73
2023/04/07 06:40:20;;;;;;;;;;;;;;;18.60;57.76;101249.45;2323475;76;52457;-73
2023/04/07 06:43:21;;;;;;;;;;;;;;;18.58;57.74;101247.94;2351673;75;51372;-73
2023/04/07 06:46:25;;;;;;;;;;;;;;;18.57;57.75;101250.27;2322972;76;52541;-73
2023/04/07 06:49:26;;;;;;;;;;;;;;;18.52;57.85;101247.25;2344805;75;24521;-74
2023/04/07 06:52:28;;;;;;;;;;;;;;;18.50;57.99;101246.93;2324649;76;51625;-75
2023/04/07 06:55:30;;;;;;;;;;;;;;;18.55;58.05;101247.77;2328919;76;50329;-73
2023/04/07 06:58:31;;;;;;;;;;;;;;;18.63;57.82;101245.59;2344749;76;51476;-73
2023/04/07 07:01:33;;;;;;;;;;;;;;;18.65;57.86;101248.91;2344701;76;50235;-74
2023/04/07 07:04:35;;;;;;;;;;;;;;;18.65;57.87;101254.27;2351367;75;52490;-73
2023/04/07 07:07:37;;;;;;;;;;;;;;;18.62;57.84;101249.25;2352494;75;50711;-72
2023/04/07 07:10:38;;;;;;;;;;;;;;;18.63;57.84;101252.29;2345150;76;50624;-72
2023/04/07 07:13:40;;;;;;;;;;;;;;;18.62;57.77;101255.95;2352150;75;51832;-73
2023/04/07 07:16:41;;;;;;;;;;;;;;;18.59;57.79;101257.13;2329358;75;50687;-72
2023/04/07 07:19:43;;;;;;;;;;;;;;;18.59;57.76;101264.34;2344547;76;51417;-73
2023/04/07 07:22:45;;;;;;;;;;;;;;;18.60;57.50;101263.32;2351535;75;51356;-73
2023/04/07 07:25:46;;;;;;;;;;;;;;;18.56;57.74;101263.34;2344559;76;50329;-73
2023/04/07 07:28:48;;;;;;;;;;;;;;;18.58;57.78;101264.84;2314156;76;51084;-73
2023/04/07 07:31:49;;;;;;;;;;;;;;;18.62;57.83;101266.17;2327334;76;50157;-73
2023/04/07 07:34:51;;;;;;;;;;;;;;;18.67;57.67;101260.31;2292510;77;50706;-72
2023/04/07 07:37:52;;;;;;;;;;;;;;;18.75;57.34;101272.88;2292006;77;51415;-72
2023/04/07 07:40:54;;;;;;;;;;;;;;;18.70;57.46;101270.69;2277314;76;52331;-72
2023/04/07 07:43:56;;;;;;;;;;;;;;;18.68;57.56;101268.20;2319850;76;52232;-72
2023/04/07 07:46:57;;;;;;;;;;;;;;;18.73;57.26;101267.70;2332262;76;51588;-73
2023/04/07 07:49:59;;;;;;;;;;;;;;;18.71;57.20;101265.17;2312602;76;50264;-73
2023/04/07 07:53:01;;;;;;;;;;;;;;;18.76;57.05;101269.23;2280343;76;50987;-73
2023/04/07 07:56:03;;;;;;;;;;;;;;;18.74;57.00;101270.70;2294973;75;52137;-71
2023/04/07 07:59:07;;;;;;;;;;;;;;;18.75;56.93;101277.75;2272671;76;51408;-72
2023/04/07 08:02:09;;;;;;;;;;;;;;;18.74;56.94;101270.70;2315992;76;50645;-72
2023/04/07 08:05:11;;;;;;;;;;;;;;;18.76;56.90;101282.13;2337128;75;51680;-73
2023/04/07 08:08:13;;;;;;;;;;;;;;;18.86;56.63;101276.59;2333025;76;50621;-72
2023/04/07 08:11:14;;;;;;;;;;;;;;;18.85;56.53;101276.25;2333051;76;51433;-73
2023/04/07 08:14:16;;;;;;;;;;;;;;;18.88;56.40;101280.78;2332903;76;51576;-72
2023/04/07 08:17:17;;;;;;;;;;;;;;;18.88;56.38;101282.60;2337313;75;50007;-72
2023/04/07 08:20:19;;;;;;;;;;;;;;;18.86;56.32;101288.16;2333024;76;51383;-72
2023/04/07 08:23:21;;;;;;;;;;;;;;;18.83;56.43;101281.80;2333105;76;50237;-73
2023/04/07 08:26:22;;;;;;;;;;;;;;;18.83;56.45;101276.43;2337237;75;50716;-72
2023/04/07 08:29:24;;;;;;;;;;;;;;;18.78;56.58;101280.13;2329862;75;51415;-72
2023/04/07 08:32:27;;;;;;;;;;;;;;;18.66;56.81;101277.41;2300678;76;50262;-73
2023/04/07 08:35:29;;;;;;;;;;;;;;;18.59;56.97;101285.78;2339893;76;50645;-73
2023/04/07 08:38:31;;;;;;;;;;;;;;;18.69;56.67;101287.80;2309563;76;50627;-72
2023/04/07 08:41:34;;;;;;;;;;;;;;;18.81;56.23;101282.46;2341291;75;51408;-72
2023/04/07 08:44:36;;;;;;;;;;;;;;;18.89;55.91;101279.77;2304427;76;52578;-72
2023/04/07 08:47:38;;;;;;;;;;;;;;;18.89;55.79;101281.11;2341083;76;50252;-72
2023/04/07 08:50:40;;;;;;;;;;;;;;;18.90;55.74;101289.98;2341199;76;51538;-72
2023/04/07 08:53:49;;;;;;;;;;;;;;;18.88;55.80;101281.27;2341106;75;50667;-73
2023/04/07 08:56:51;;;;;;;;;;;;;;;18.85;55.78;101283.78;2309072;76;49432;-72
2023/04/07 08:59:53;;;;;;;;;;;;;;;18.84;55.74;101291.50;2328114;76;50347;-73
2023/04/07 09:02:54;;;;;;;;;;;;;;;18.81;55.82;101300.40;2300458;76;51550;-73
2023/04/07 09:05:56;;;;;;;;;;;;;;;18.78;55.86;101309.61;2293440;77;50214;-73
2023/04/07 09:08:58;;;;;;;;;;;;;;;18.68;56.11;101303.55;2282773;76;51163;-72
2023/04/07 09:12:00;;;;;;;;;;;;;;;18.68;56.17;101311.59;2294162;76;51451;-72
2023/04/07 09:15:01;;;;;;;;;;;;;;;18.79;55.87;101308.59;2340819;76;50189;-72
2023/04/07 09:18:03;;;;;;;;;;;;;;;18.90;55.57;101311.44;2341132;76;50201;-73
2023/04/07 09:21:06;;;;;;;;;;;;;;;18.95;55.43;101296.19;2283635;76;52326;-73
2023/04/07 09:24:21;;;;;;;;;;;;;;;18.97;55.38;101295.52;2309607;76;50226;-72
2023/04/07 09:27:23;;;;;;;;;;;;;;;18.97;55.27;101303.56;2341117;76;51398;-74
2023/04/07 09:30:24;;;;;;;;;;;;;;;18.97;55.21;101305.73;2333302;76;51344;-71
2023/04/07 09:33:28;;;;;;;;;;;;;;;18.94;55.28;101310.10;2299075;76;51153;-72
2023/04/07 09:36:29;;;;;;;;;;;;;;;18.90;55.28;101313.61;2331438;75;50397;-72
2023/04/07 09:39:31;;;;;;;;;;;;;;;18.88;55.27;101309.42;2281636;76;50613;-71
2023/04/07 09:42:35;;;;;;;;;;;;;;;18.85;55.28;101309.76;2308792;76;50217;-72
2023/04/07 09:45:38;;;;;;;;;;;;;;;18.81;55.35;101311.95;2319255;76;22374;-72
2023/04/07 09:48:39;;;;;;;;;;;;;;;18.75;55.51;101309.92;2319884;76;22394;-73
2023/04/07 09:51:42;;;;;;;;;;;;;;;18.80;55.43;101314.28;2295375;76;51458;-73
2023/04/07 09:54:44;;;;;;;;;;;;;;;18.84;55.21;101316.97;2317546;76;51607;-73
2023/04/07 09:57:46;;;;;;;;;;;;;;;18.88;55.13;101322.34;2295534;76;50743;-73
2023/04/07 10:00:47;;;;;;;;;;;;;;;18.87;55.08;101319.31;2319562;76;52061;-72
2023/04/07 10:03:49;;;;;;;;;;;;;;;18.87;55.08;101319.82;2319466;76;51450;-72
2023/04/07 10:06:53;;;;;;;;;;;;;;;18.82;55.15;101323.00;2319491;76;51630;-71
2023/04/07 10:09:55;;;;;;;;;;;;;;;18.79;55.17;101317.98;2280446;76;52452;-73
2023/04/07 10:12:57;;;;;;;;;;;;;;;18.79;55.13;101325.19;2282844;78;51575;-73
2023/04/07 10:15:58;;;;;;;;;;;;;;;18.71;55.29;101321.47;2295308;76;50296;-72
2023/04/07 10:19:00;;;;;;;;;;;;;;;18.65;55.50;101319.95;2296483;75;49974;-72
2023/04/07 10:22:02;;;;;;;;;;;;;;;18.61;55.61;101323.47;2292174;75;50777;-73
2023/04/07 10:25:05;;;;;;;;;;;;;;;18.71;55.39;101316.61;2278624;76;51450;-74
2023/04/07 10:28:07;;;;;;;;;;;;;;;18.82;55.14;101314.95;2321317;76;50620;-73
2023/04/07 10:31:09;;;;;;;;;;;;;;;18.91;54.81;101320.66;2313996;76;50636;-73
2023/04/07 10:34:11;;;;;;;;;;;;;;;18.92;54.74;101322.33;2281663;76;51226;-73
2023/04/07 10:37:13;;;;;;;;;;;;;;;18.96;54.64;101313.94;2307351;76;51456;-74
2023/04/07 10:40:25;;;;;;;;;;;;;;;18.95;54.62;101313.11;2293886;76;51617;-73
2023/04/07 10:43:43;;;;;;;;;;;;;;;18.93;54.65;101320.48;2282948;77;22747;-72
2023/04/07 10:46:50;;;;;;;;;;;;;;;18.89;54.72;101316.48;2287934;76;22889;-73
2023/04/07 10:50:12;;;;;;;;;;;;;;;18.91;54.66;101317.15;2287943;76;51580;-73
2023/04/07 10:53:15;;;;;;;;;;;;;;;18.89;54.68;101315.97;2286775;76;49928;-73
2023/04/07 10:56:16;;;;;;;;;;;;;;;18.83;54.79;101313.97;2313481;76;50763;-72
2023/04/07 10:59:22;;;;;;;;;;;;;;;18.84;54.78;101311.61;2269932;78;51627;-73
2023/04/07 11:02:29;;;;;;;;;;;;;;;18.90;54.64;101310.92;2275146;77;23017;-74
2023/04/07 11:05:31;;;;;;;;;;;;;;;18.90;54.60;101309.58;2290672;76;50415;-74
2023/04/07 11:08:36;;;;;;;;;;;;;;;18.95;54.50;101308.25;2287917;76;50341;-75
2023/04/07 11:11:38;;;;;;;;;;;;;;;18.93;54.49;101312.43;2296226;76;49495;-73
2023/04/07 11:14:40;;;;;;;;;;;;;;;18.90;54.59;101317.63;2270632;78;51461;-74
2023/04/07 11:17:42;;;;;;;;;;;;;;;18.89;54.63;101309.26;2270753;78;50369;-73
2023/04/07 11:20:45;;;;;;;;;;;;;;;18.82;54.80;101304.73;2298894;76;50204;-72
2023/04/07 11:23:47;;;;;;;;;;;;;;;18.79;54.93;101309.11;2294100;76;52366;-73
2023/04/07 11:26:49;;;;;;;;;;;;;;;18.76;55.09;101307.59;2309018;76;51445;-73
2023/04/07 11:29:51;;;;;;;;;;;;;;;18.79;55.06;101304.58;2299849;76;50666;-73
2023/04/07 11:32:52;;;;;;;;;;;;;;;18.82;55.04;101302.89;2290335;76;51277;-73
2023/04/07 11:35:58;;;;;;;;;;;;;;;18.89;54.95;101303.06;2275141;76;52275;-73
2023/04/07 11:39:00;;;;;;;;;;;;;;;18.90;54.84;101301.54;2292726;76;51484;-74
2023/04/07 11:42:01;;;;;;;;;;;;;;;18.96;54.75;101305.41;2291214;76;50256;-74
2023/04/07 11:45:03;;;;;;;;;;;;;;;18.92;54.81;101304.89;2298884;76;50652;-73
2023/04/07 11:48:05;;;;;;;;;;;;;;;18.93;54.78;101300.36;2311609;76;49446;-72
2023/04/07 11:51:07;;;;;;;;;;;;;;;18.91;54.80;101299.20;2305495;75;50312;-72
2023/04/07 11:54:09;;;;;;;;;;;;;;;18.86;54.85;101300.22;2317553;75;51450;-72
2023/04/07 11:57:13;;;;;;;;;;;;;;;18.79;54.98;101302.41;2322206;75;51498;-73
2023/04/07 12:00:14;;;;;;;;;;;;;;;18.75;55.03;101296.52;2329898;75;51138;-73
2023/04/07 12:03:16;;;;;;;;;;;;;;;18.77;55.01;101301.73;2333214;76;50575;-74
2023/04/07 12:06:19;;;;;;;;;;;;;;;18.81;54.94;101305.25;2305345;76;50560;-75
2023/04/07 12:09:28;;;;;;;;;;;;;;;18.85;54.81;101294.50;2299079;76;51291;-74
2023/04/07 12:12:32;;;;;;;;;;;;;;;18.89;54.67;101295.02;2275893;77;51160;-74
2023/04/07 12:15:33;;;;;;;;;;;;;;;18.87;54.72;101297.86;2280845;78;22363;-73
2023/04/07 12:18:35;;;;;;;;;;;;;;;18.86;54.71;101301.56;2306374;76;50302;-76
2023/04/07 12:21:37;;;;;;;;;;;;;;;18.84;54.72;101300.89;2284565;76;51513;-73
2023/04/07 12:24:38;;;;;;;;;;;;;;;18.81;54.77;101313.80;2270416;78;51472;-74
2023/04/07 12:27:40;;;;;;;;;;;;;;;18.79;54.84;101305.92;2281314;76;50270;-75
2023/04/07 12:30:42;;;;;;;;;;;;;;;18.74;54.95;101308.23;2338571;75;51470;-77
2023/04/07 12:33:44;;;;;;;;;;;;;;;18.73;54.96;101307.91;2325696;75;51549;-75
2023/04/07 12:36:45;;;;;;;;;;;;;;;18.75;55.00;101305.91;2253998;76;50073;-76
2023/04/07 12:39:47;;;;;;;;;;;;;;;18.81;54.90;101302.57;2318207;76;52076;-76
2023/04/07 12:42:48;;;;;;;;;;;;;;;18.91;54.71;101296.53;2301409;76;51082;-76
2023/04/07 12:45:50;;;;;;;;;;;;;;;18.96;54.52;101303.20;2272261;77;50465;-75
2023/04/07 12:48:52;;;;;;;;;;;;;;;18.98;54.43;101302.55;2284661;76;51160;-75
2023/04/07 12:51:53;;;;;;;;;;;;;;;18.97;54.49;101299.54;2333108;76;50192;-77
2023/04/07 12:54:56;;;;;;;;;;;;;;;18.96;54.43;101297.84;2317048;76;50008;-78
2023/04/07 12:57:57;;;;;;;;;;;;;;;18.90;54.54;101289.98;2293699;77;51498;-74
2023/04/07 13:00:59;;;;;;;;;;;;;;;18.84;54.74;101303.56;2293831;76;50201;-74
2023/04/07 13:04:01;;;;;;;;;;;;;;;18.79;54.92;101294.36;2272385;77;51507;-74
2023/04/07 13:07:02;;;;;;;;;;;;;;;18.70;55.27;101293.48;2272648;77;52289;-77
2023/04/07 13:10:06;;;;;;;;;;;;;;;18.70;55.29;101296.16;2272555;77;51435;-75
2023/04/07 13:13:07;;;;;;;;;;;;;;;18.67;55.49;101291.97;2288952;76;51442;-73
2023/04/07 13:16:09;;;;;;;;;;;;;;;18.75;55.32;101301.88;2337454;75;51569;-74
2023/04/07 13:19:10;;;;;;;;;;;;;;;18.77;55.33;101293.17;2337363;75;51461;-73
2023/04/07 13:22:12;;;;;;;;;;;;;;;18.79;55.39;101300.55;2316646;76;51415;-74
2023/04/07 13:25:14;;;;;;;;;;;;;;;18.77;55.41;101294.52;2276633;76;52386;-74
2023/04/07 13:28:17;;;;;;;;;;;;;;;18.74;55.57;101294.00;2331213;76;50681;-71
2023/04/07 13:31:20;;;;;;;;;;;;;;;18.71;55.56;101291.98;2317195;76;51470;-72
2023/04/07 13:34:22;;;;;;;;;;;;;;;18.70;55.52;101294.34;2310741;75;24396;-74
2023/04/07 13:37:23;;;;;;;;;;;;;;;18.67;55.52;101290.63;2251877;77;51726;-74
2023/04/07 13:40:25;;;;;;;;;;;;;;;18.66;55.46;101294.84;2298510;76;50254;-74
2023/04/07 13:43:27;;;;;;;;;;;;;;;18.69;55.36;101288.63;2328495;76;50122;-74
2023/04/07 13:46:28;;;;;;;;;;;;;;;18.74;55.24;101284.61;2337235;75;50117;-75
2023/04/07 13:49:30;;;;;;;;;;;;;;;18.82;55.10;101290.00;2287199;77;51026;-74
2023/04/07 13:52:34;;;;;;;;;;;;;;;18.89;54.90;101286.98;2312413;76;50459;-75
2023/04/07 13:55:35;;;;;;;;;;;;;;;18.78;55.25;101281.47;2297206;76;24970;-77
2023/04/07 13:58:37;;;;;;;;;;;;;;;19.06;54.77;101285.09;2325416;76;50256;-74
2023/04/07 14:01:39;;;;;;;;;;;;;;;19.11;54.70;101280.05;2255494;76;51511;-73
2023/04/07 14:04:41;;;;;;;;;;;;;;;18.99;54.86;101280.09;2297277;77;50384;-74
2023/04/07 14:07:42;;;;;;;;;;;;;;;18.96;54.89;101279.94;2295176;76;49772;-74
2023/04/07 14:10:44;;;;;;;;;;;;;;;18.87;55.02;101277.75;2309125;76;50298;-74
2023/04/07 14:13:45;;;;;;;;;;;;;;;18.82;55.09;101276.08;2277992;77;49400;-74
2023/04/07 14:16:50;;;;;;;;;;;;;;;18.78;55.15;101276.10;2290640;76;50799;-75
2023/04/07 14:19:50;;;;;;;;;;;;;;;18.77;55.18;101268.22;2302919;76;22359;-74
2023/04/07 14:22:52;;;;;;;;;;;;;;;18.71;55.42;101271.05;2298656;76;51625;-74
2023/04/07 14:25:53;;;;;;;;;;;;;;;18.63;55.69;101270.55;2256997;76;52296;-73
2023/04/07 14:28:55;;;;;;;;;;;;;;;18.60;55.73;101268.20;2288601;76;51411;-74
2023/04/07 14:31:57;;;;;;;;;;;;;;;18.61;55.64;101271.20;2293024;75;51427;-73
2023/04/07 14:34:58;;;;;;;;;;;;;;;18.57;55.68;101269.86;2302709;76;51437;-74
2023/04/07 14:38:00;;;;;;;;;;;;;;;18.55;55.73;101271.03;2293671;76;51348;-74
2023/04/07 14:41:02;;;;;;;;;;;;;;;18.53;55.72;101272.55;2299559;76;51462;-73
2023/04/07 14:44:03;;;;;;;;;;;;;;;18.49;55.83;101264.50;2306027;76;50730;-72
2023/04/07 14:47:05;;;;;;;;;;;;;;;18.40;56.15;101269.03;2285496;76;51370;-75
2023/04/07 14:50:07;;;;;;;;;;;;;;;18.38;56.13;101267.02;2267754;77;50947;-74
2023/04/07 14:53:08;;;;;;;;;;;;;;;18.38;56.13;101264.34;2281445;77;50088;-75
2023/04/07 14:56:10;;;;;;;;;;;;;;;18.56;55.70;101270.87;2307403;76;50212;-74
2023/04/07 14:59:11;;;;;;;;;;;;;;;18.70;55.48;101270.69;2296460;76;50717;-74
2023/04/07 15:02:13;;;;;;;;;;;;;;;18.79;55.22;101271.57;2305715;76;52483;-75
2023/04/07 15:05:15;;;;;;;;;;;;;;;18.81;55.05;101270.39;2280429;76;52399;-75
2023/04/07 15:08:16;;;;;;;;;;;;;;;18.82;55.03;101265.36;2311837;76;50192;-74
2023/04/07 15:11:18;;;;;;;;;;;;;;;18.80;54.98;101266.02;2302533;76;50360;-75
2023/04/07 15:14:19;;;;;;;;;;;;;;;18.79;54.96;101264.36;2301091;76;51516;-73
2023/04/07 15:17:21;;;;;;;;;;;;;;;18.81;54.88;101268.22;2282633;76;51383;-74
2023/04/07 15:20:23;;;;;;;;;;;;;;;18.77;54.94;101272.23;2299307;76;50241;-75
2023/04/07 15:23:24;;;;;;;;;;;;;;;18.76;54.98;101274.59;2280424;76;51389;-74
2023/04/07 15:26:26;;;;;;;;;;;;;;;18.71;55.00;101275.89;2283682;76;50999;-74
2023/04/07 15:29:28;;;;;;;;;;;;;;;18.69;55.04;101275.73;2299490;76;51457;-76
2023/04/07 15:32:30;;;;;;;;;;;;;;;18.76;54.92;101275.94;2321201;75;51359;-74
2023/04/07 15:35:32;;;;;;;;;;;;;;;18.78;54.87;101276.10;2306088;76;50232;-74
2023/04/07 15:38:33;;;;;;;;;;;;;;;18.78;54.86;101271.22;2259152;77;51076;-74